createdAt,value
2018-08-27T00:01:11.012Z,99.90
2018-08-27T00:03:40.830Z,99.90
2018-08-27T00:06:09.315Z,99.90
2018-08-27T00:08:37.741Z,99.90
2018-08-27T00:11:06.244Z,99.90
2018-08-27T00:13:34.761Z,99.90
2018-08-27T00:16:03.270Z,99.90
2018-08-27T00:18:31.837Z,99.90
2018-08-27T00:21:00.683Z,99.90
2018-08-27T00:23:29.135Z,99.90
2018-08-27T00:25:57.556Z,99.90
2018-08-27T00:28:26.098Z,99.90
2018-08-27T00:30:54.576Z,99.90
2018-08-27T00:33:23.151Z,99.90
2018-08-27T00:35:51.655Z,99.90
2018-08-27T00:38:20.100Z,99.90
2018-08-27T00:40:48.559Z,99.90
2018-08-27T00:43:17.099Z,99.90
2018-08-27T00:45:45.825Z,99.90
2018-08-27T00:48:14.356Z,99.90
2018-08-27T00:50:42.791Z,99.90
2018-08-27T00:53:11.360Z,99.90
2018-08-27T00:55:39.847Z,99.90
2018-08-27T00:58:08.325Z,99.90
2018-08-27T01:00:36.877Z,99.90
2018-08-27T01:03:05.592Z,99.90
2018-08-27T01:05:34.113Z,99.90
2018-08-27T01:08:02.827Z,99.90
2018-08-27T01:10:31.340Z,99.90
2018-08-27T01:12:59.858Z,99.90
2018-08-27T01:15:28.344Z,99.90
2018-08-27T01:17:56.779Z,99.90
2018-08-27T01:20:25.212Z,99.90
2018-08-27T01:22:53.687Z,99.90
2018-08-27T01:25:22.136Z,99.90
2018-08-27T01:27:50.564Z,99.90
2018-08-27T01:30:19.091Z,99.90
2018-08-27T01:32:47.540Z,99.90
2018-08-27T01:35:16.004Z,99.90
2018-08-27T01:37:44.457Z,99.90
2018-08-27T01:40:12.956Z,99.90
2018-08-27T01:42:41.400Z,99.90
2018-08-27T01:45:10.025Z,99.90
2018-08-27T01:47:38.436Z,99.90
2018-08-27T01:50:06.912Z,99.90
2018-08-27T01:52:35.420Z,99.90
2018-08-27T01:55:04.011Z,99.90
2018-08-27T01:57:32.441Z,99.90
2018-08-27T02:00:01.122Z,99.90
2018-08-27T02:02:29.565Z,99.90
2018-08-27T02:04:58.036Z,99.90
2018-08-27T02:07:26.519Z,99.90
2018-08-27T02:09:55.284Z,99.90
2018-08-27T02:12:23.803Z,99.90
2018-08-27T02:14:52.280Z,99.90
2018-08-27T02:17:20.725Z,99.90
2018-08-27T02:19:49.179Z,99.90
2018-08-27T02:22:17.697Z,99.90
2018-08-27T02:24:46.128Z,99.90
2018-08-27T02:27:14.548Z,99.90
2018-08-27T02:29:43.171Z,99.90
2018-08-27T02:32:11.725Z,99.90
2018-08-27T02:34:40.192Z,99.90
2018-08-27T02:37:08.893Z,99.90
2018-08-27T02:39:37.416Z,99.90
2018-08-27T02:42:06.044Z,99.90
2018-08-27T02:44:34.511Z,99.90
2018-08-27T02:47:03.012Z,99.90
2018-08-27T02:49:31.644Z,99.90
2018-08-27T02:52:00.107Z,99.90
2018-08-27T02:54:28.575Z,99.90
2018-08-27T02:56:57.344Z,99.90
2018-08-27T02:59:25.968Z,99.90
2018-08-27T03:01:54.436Z,99.90
2018-08-27T03:04:22.939Z,99.90
2018-08-27T03:06:51.371Z,99.90
2018-08-27T03:09:19.828Z,99.90
2018-08-27T03:11:48.247Z,99.90
2018-08-27T03:14:16.928Z,99.90
2018-08-27T03:16:45.360Z,99.90
2018-08-27T03:19:13.791Z,99.90
2018-08-27T03:21:42.259Z,99.90
2018-08-27T03:24:10.718Z,99.90
2018-08-27T03:26:39.186Z,99.90
2018-08-27T03:29:07.611Z,99.90
2018-08-27T03:31:36.296Z,99.90
2018-08-27T03:34:04.818Z,99.90
2018-08-27T03:36:33.353Z,99.90
2018-08-27T03:39:02.050Z,99.90
2018-08-27T03:41:30.617Z,99.90
2018-08-27T03:43:59.090Z,99.90
2018-08-27T03:46:27.608Z,99.90
2018-08-27T03:48:56.123Z,99.90
2018-08-27T03:51:24.736Z,99.90
2018-08-27T03:53:53.192Z,99.90
2018-08-27T03:56:21.671Z,99.90
2018-08-27T03:58:50.163Z,99.90
2018-08-27T04:01:18.725Z,99.90
2018-08-27T04:03:47.251Z,99.90
2018-08-27T04:06:15.745Z,99.90
2018-08-27T04:08:44.184Z,99.90
2018-08-27T04:11:12.656Z,99.90
2018-08-27T04:13:41.402Z,99.90
2018-08-27T04:16:09.838Z,99.90
2018-08-27T04:18:38.362Z,99.90
2018-08-27T04:21:07.026Z,99.90
2018-08-27T04:23:35.451Z,99.90
2018-08-27T04:26:03.944Z,99.90
2018-08-27T04:28:32.443Z,99.90
2018-08-27T04:31:00.874Z,99.90
2018-08-27T04:33:29.722Z,99.90
2018-08-27T04:35:58.146Z,99.90
2018-08-27T04:38:26.674Z,99.90
2018-08-27T04:40:55.111Z,99.90
2018-08-27T04:43:23.888Z,99.90
2018-08-27T04:45:52.383Z,99.90
2018-08-27T04:48:20.809Z,99.90
2018-08-27T04:50:49.304Z,99.90
2018-08-27T04:53:17.888Z,99.90
2018-08-27T04:55:46.358Z,99.90
2018-08-27T04:58:14.892Z,99.90
2018-08-27T05:00:43.483Z,99.90
2018-08-27T05:03:12.456Z,99.90
2018-08-27T05:05:41.040Z,99.90
2018-08-27T05:08:09.486Z,99.90
2018-08-27T05:10:38.168Z,99.90
2018-08-27T05:13:06.605Z,99.90
2018-08-27T05:15:35.136Z,99.90
2018-08-27T05:18:03.779Z,99.90
2018-08-27T05:20:32.435Z,99.90
2018-08-27T05:23:00.924Z,99.90
2018-08-27T05:25:29.368Z,99.90
2018-08-27T05:27:57.826Z,99.90
2018-08-27T05:30:26.262Z,99.90
2018-08-27T05:32:54.864Z,99.90
2018-08-27T05:35:23.363Z,99.90
2018-08-27T05:37:51.866Z,99.90
2018-08-27T05:40:20.444Z,99.90
2018-08-27T05:42:48.963Z,99.90
2018-08-27T05:45:17.411Z,99.90
2018-08-27T05:47:45.898Z,99.90
2018-08-27T05:50:14.419Z,99.90
2018-08-27T05:52:42.867Z,99.90
2018-08-27T05:55:11.332Z,99.90
2018-08-27T05:57:41.233Z,99.90
2018-08-27T06:00:09.816Z,99.90
2018-08-27T06:02:38.261Z,99.90
2018-08-27T06:05:06.775Z,99.90
2018-08-27T06:07:35.405Z,99.90
2018-08-27T06:10:04.515Z,99.90
2018-08-27T06:12:32.969Z,99.90
2018-08-27T06:15:01.464Z,99.90
2018-08-27T06:17:29.976Z,99.90
2018-08-27T06:19:58.407Z,99.90
2018-08-27T06:22:26.963Z,99.90
2018-08-27T06:24:55.448Z,99.90
2018-08-27T06:27:23.860Z,99.90
2018-08-27T06:29:52.615Z,99.90
2018-08-27T06:32:21.101Z,99.90
2018-08-27T06:34:49.527Z,99.90
2018-08-27T06:37:18.101Z,99.90
2018-08-27T06:39:46.561Z,99.90
2018-08-27T06:42:15.083Z,99.90
2018-08-27T06:44:43.568Z,99.90
2018-08-27T06:47:12.226Z,99.90
2018-08-27T06:49:40.655Z,99.90
2018-08-27T06:52:09.153Z,99.90
2018-08-27T06:54:37.600Z,99.90
2018-08-27T06:57:06.147Z,99.90
2018-08-27T06:59:34.732Z,99.90
2018-08-27T07:02:03.415Z,99.90
2018-08-27T07:04:32.103Z,99.90
2018-08-27T07:07:00.709Z,99.90
2018-08-27T07:09:29.152Z,99.90
2018-08-27T07:11:57.689Z,99.90
2018-08-27T07:14:26.281Z,99.90
2018-08-27T07:16:54.751Z,99.30
2018-08-27T07:19:23.182Z,99.10
2018-08-27T07:21:52.065Z,98.70
2018-08-27T07:24:20.583Z,99.30
2018-08-27T07:26:49.041Z,99.60
2018-08-27T07:29:17.496Z,98.60
2018-08-27T07:31:46.064Z,97.90
2018-08-27T07:34:14.554Z,98.80
2018-08-27T07:36:43.224Z,97.70
2018-08-27T07:39:12.379Z,98.20
2018-08-27T07:41:41.307Z,97.80
2018-08-27T07:44:10.024Z,97.60
2018-08-27T07:46:38.676Z,97.00
2018-08-27T07:49:07.147Z,97.30
2018-08-27T07:51:35.583Z,96.80
2018-08-27T07:54:04.138Z,96.80
2018-08-27T07:56:32.582Z,97.10
2018-08-27T07:59:01.220Z,97.10
2018-08-27T08:01:29.960Z,97.70
2018-08-27T08:03:58.555Z,98.10
2018-08-27T08:06:27.033Z,97.30
2018-08-27T08:08:55.595Z,97.60
2018-08-27T08:11:24.196Z,97.90
2018-08-27T08:13:52.806Z,97.90
2018-08-27T08:16:21.327Z,97.80
2018-08-27T08:18:49.770Z,98.40
2018-08-27T08:21:18.400Z,97.60
2018-08-27T08:23:46.912Z,97.60
2018-08-27T08:26:15.620Z,97.60
2018-08-27T08:28:44.079Z,97.40
2018-08-27T08:31:12.776Z,97.60
2018-08-27T08:33:41.474Z,97.40
2018-08-27T08:36:09.967Z,97.20
2018-08-27T08:38:38.434Z,97.60
2018-08-27T08:41:06.995Z,99.00
2018-08-27T08:43:35.465Z,99.90
2018-08-27T08:46:03.935Z,99.90
2018-08-27T08:48:32.383Z,99.90
2018-08-27T08:51:01.038Z,99.90
2018-08-27T08:53:29.637Z,99.90
2018-08-27T08:55:58.045Z,99.90
2018-08-27T08:58:26.672Z,99.90
2018-08-27T09:00:55.207Z,99.90
2018-08-27T09:03:23.881Z,99.90
2018-08-27T09:05:52.449Z,99.90
2018-08-27T09:08:21.066Z,99.90
2018-08-27T09:10:49.380Z,99.90
2018-08-27T09:13:18.162Z,99.00
2018-08-27T09:15:46.607Z,99.90
2018-08-27T09:18:15.179Z,99.30
2018-08-27T09:20:43.644Z,99.40
2018-08-27T09:23:12.123Z,99.90
2018-08-27T09:25:40.564Z,99.90
2018-08-27T09:28:09.088Z,99.90
2018-08-27T09:30:37.678Z,99.90
2018-08-27T09:33:06.461Z,99.90
2018-08-27T09:35:34.908Z,99.90
2018-08-27T09:38:03.387Z,99.90
2018-08-27T09:40:31.826Z,99.90
2018-08-27T09:43:00.315Z,99.90
2018-08-27T09:45:28.756Z,99.90
2018-08-27T09:47:57.214Z,99.90
2018-08-27T09:50:25.721Z,99.90
2018-08-27T09:52:54.352Z,99.90
2018-08-27T09:55:22.755Z,99.90
2018-08-27T09:57:51.235Z,99.90
2018-08-27T10:00:25.112Z,99.90
2018-08-27T10:02:53.595Z,99.90
2018-08-27T10:05:22.648Z,99.90
2018-08-27T10:07:51.147Z,99.90
2018-08-27T10:10:19.753Z,99.90
2018-08-27T10:12:48.282Z,99.90
2018-08-27T10:15:16.797Z,99.90
2018-08-27T10:17:45.517Z,99.90
2018-08-27T10:20:14.027Z,99.90
2018-08-27T10:22:42.578Z,99.90
2018-08-27T10:25:10.955Z,99.50
2018-08-27T10:27:39.498Z,99.90
2018-08-27T10:30:09.776Z,99.40
2018-08-27T10:32:38.295Z,99.60
2018-08-27T10:35:07.089Z,99.10
2018-08-27T10:37:35.917Z,98.40
2018-08-27T10:40:04.427Z,98.80
2018-08-27T10:42:32.899Z,98.40
2018-08-27T10:45:01.756Z,98.40
2018-08-27T10:47:30.287Z,98.60
2018-08-27T10:49:58.785Z,98.70
2018-08-27T10:52:27.209Z,99.40
2018-08-27T10:54:55.687Z,99.40
2018-08-27T10:57:24.175Z,99.20
2018-08-27T10:59:52.657Z,99.00
2018-08-27T11:02:21.102Z,98.20
2018-08-27T11:04:50.572Z,99.00
2018-08-27T11:07:21.620Z,98.90
2018-08-27T11:09:50.180Z,99.20
2018-08-27T11:12:18.621Z,99.70
2018-08-27T11:14:47.187Z,97.60
2018-08-27T11:17:15.716Z,97.50
2018-08-27T11:19:44.294Z,98.50
2018-08-27T11:22:13.880Z,98.40
2018-08-27T11:24:42.348Z,98.30
2018-08-27T11:27:10.921Z,98.20
2018-08-27T11:29:39.368Z,98.00
2018-08-27T11:32:07.863Z,97.10
2018-08-27T11:34:36.401Z,97.90
2018-08-27T11:37:04.862Z,96.90
2018-08-27T11:39:33.387Z,98.80
2018-08-27T11:42:01.921Z,98.80
2018-08-27T11:44:30.375Z,98.70
2018-08-27T11:46:58.926Z,96.10
2018-08-27T11:49:27.388Z,96.90
2018-08-27T11:51:55.977Z,97.40
2018-08-27T11:54:24.843Z,98.80
2018-08-27T11:56:53.292Z,99.00
2018-08-27T11:59:21.893Z,99.50
2018-08-27T12:01:50.365Z,99.90
2018-08-27T12:04:19.016Z,99.90
2018-08-27T12:06:47.586Z,99.90
2018-08-27T12:09:16.088Z,99.90
2018-08-27T12:11:44.574Z,99.90
2018-08-27T12:14:13.039Z,99.90
2018-08-27T12:16:41.691Z,99.90
2018-08-27T12:19:10.195Z,99.90
2018-08-27T12:21:38.690Z,99.90
2018-08-27T12:24:07.119Z,99.90
2018-08-27T12:26:35.767Z,99.90
2018-08-27T12:29:04.263Z,99.90
2018-08-27T12:31:32.759Z,99.90
2018-08-27T12:34:01.276Z,99.90
2018-08-27T12:36:29.759Z,99.90
2018-08-27T12:38:58.229Z,99.90
2018-08-27T12:41:26.838Z,99.90
2018-08-27T12:43:55.319Z,99.90
2018-08-27T12:46:23.927Z,99.90
2018-08-27T12:48:52.704Z,99.90
2018-08-27T12:51:21.229Z,99.90
2018-08-27T12:53:49.672Z,99.90
2018-08-27T12:56:18.339Z,99.90
2018-08-27T12:58:46.930Z,99.90
2018-08-27T13:01:15.419Z,99.90
2018-08-27T13:03:44.118Z,99.90
2018-08-27T13:06:12.588Z,99.90
2018-08-27T13:08:41.039Z,99.90
2018-08-27T13:11:09.886Z,99.90
2018-08-27T13:13:38.280Z,99.90
2018-08-27T13:16:06.811Z,99.90
2018-08-27T13:18:35.321Z,99.90
2018-08-27T13:21:03.945Z,99.90
2018-08-27T13:23:32.411Z,99.90
2018-08-27T13:26:01.048Z,99.90
2018-08-27T13:28:29.475Z,99.90
2018-08-27T13:30:57.953Z,99.90
2018-08-27T13:33:26.516Z,99.90
2018-08-27T13:35:54.987Z,99.90
2018-08-27T13:38:23.478Z,99.90
2018-08-27T13:40:51.911Z,99.90
2018-08-27T13:43:20.477Z,99.90
2018-08-27T13:45:49.135Z,99.90
2018-08-27T13:48:17.591Z,99.90
2018-08-27T13:50:46.132Z,99.90
2018-08-27T13:53:14.765Z,99.90
2018-08-27T13:55:43.358Z,99.90
2018-08-27T13:58:11.995Z,99.90
2018-08-27T14:00:40.467Z,99.90
2018-08-27T14:03:09.024Z,99.90
2018-08-27T14:05:37.452Z,99.90
2018-08-27T14:08:06.785Z,99.90
2018-08-27T14:10:35.353Z,99.90
2018-08-27T14:13:03.748Z,99.90
2018-08-27T14:15:32.338Z,99.90
2018-08-27T14:18:00.840Z,99.90
2018-08-27T14:20:29.676Z,99.90
2018-08-27T14:22:58.065Z,99.90
2018-08-27T14:25:26.699Z,99.90
2018-08-27T14:27:55.153Z,99.90
2018-08-27T14:30:23.742Z,99.90
2018-08-27T14:32:52.274Z,99.90
2018-08-27T14:35:20.772Z,99.90
2018-08-27T14:37:49.238Z,99.90
2018-08-27T14:40:17.736Z,99.90
2018-08-27T14:42:46.197Z,99.90
2018-08-27T14:45:14.831Z,99.90
2018-08-27T14:47:43.381Z,99.90
2018-08-27T14:50:11.895Z,99.90
2018-08-27T14:52:40.345Z,99.90
2018-08-27T14:55:08.832Z,99.90
2018-08-27T14:57:37.296Z,99.90
2018-08-27T15:00:06.609Z,99.90
2018-08-27T15:02:35.056Z,99.90
2018-08-27T15:05:03.580Z,99.90
2018-08-27T15:07:32.008Z,99.90
2018-08-27T15:10:00.536Z,99.90
2018-08-27T15:12:29.028Z,99.90
2018-08-27T15:14:57.559Z,99.90
2018-08-27T15:17:26.197Z,99.90
2018-08-27T15:19:54.759Z,99.90
2018-08-27T15:22:23.208Z,99.90
2018-08-27T15:24:51.732Z,99.90
2018-08-27T15:27:20.168Z,99.90
2018-08-27T15:29:48.645Z,99.90
2018-08-27T15:32:17.091Z,99.90
2018-08-27T15:34:45.784Z,99.90
2018-08-27T15:37:14.269Z,99.90
2018-08-27T15:39:42.724Z,99.90
2018-08-27T15:42:11.282Z,99.90
2018-08-27T15:44:39.799Z,99.90
2018-08-27T15:47:08.298Z,99.90
2018-08-27T15:49:36.775Z,99.90
2018-08-27T15:52:05.417Z,99.90
2018-08-27T15:54:33.875Z,99.90
2018-08-27T15:57:02.370Z,99.90
2018-08-27T15:59:30.957Z,99.90
2018-08-27T16:01:59.664Z,99.90
2018-08-27T16:04:29.688Z,99.90
2018-08-27T16:06:58.319Z,99.90
2018-08-27T16:09:26.944Z,99.90
2018-08-27T16:11:55.434Z,99.90
2018-08-27T16:14:23.872Z,99.90
2018-08-27T16:16:52.428Z,99.90
2018-08-27T16:19:21.198Z,99.90
2018-08-27T16:21:49.833Z,99.90
2018-08-27T16:24:18.383Z,99.90
2018-08-27T16:26:47.084Z,99.90
2018-08-27T16:29:15.536Z,99.90
2018-08-27T16:31:43.992Z,99.90
2018-08-27T16:34:12.482Z,99.90
2018-08-27T16:36:40.917Z,99.90
2018-08-27T16:39:09.664Z,99.90
2018-08-27T16:41:38.696Z,99.90
2018-08-27T16:44:07.349Z,99.90
2018-08-27T16:46:35.998Z,99.90
2018-08-27T16:49:04.612Z,99.90
2018-08-27T16:51:33.239Z,99.90
2018-08-27T16:54:01.701Z,99.90
2018-08-27T16:56:30.210Z,99.90
2018-08-27T16:58:58.703Z,99.90
2018-08-27T17:01:27.249Z,99.90
2018-08-27T17:03:55.719Z,99.90
2018-08-27T17:06:24.244Z,99.90
2018-08-27T17:08:52.917Z,99.90
2018-08-27T17:11:21.519Z,99.90
2018-08-27T17:13:50.008Z,99.90
2018-08-27T17:16:18.612Z,99.90
2018-08-27T17:18:47.324Z,99.90
2018-08-27T17:21:15.952Z,99.90
2018-08-27T17:23:44.607Z,99.90
2018-08-27T17:26:13.231Z,99.90
2018-08-27T17:28:41.728Z,99.90
2018-08-27T17:31:10.193Z,99.90
2018-08-27T17:33:38.728Z,99.90
2018-08-27T17:36:07.447Z,99.90
2018-08-27T17:38:35.916Z,99.90
2018-08-27T17:41:04.392Z,99.90
2018-08-27T17:43:33.038Z,99.90
2018-08-27T17:46:01.574Z,99.90
2018-08-27T17:48:30.096Z,99.90
2018-08-27T17:50:58.628Z,99.90
2018-08-27T17:53:27.115Z,99.90
2018-08-27T17:55:55.621Z,99.90
2018-08-27T17:58:24.461Z,99.90
2018-08-27T18:00:53.017Z,99.90
2018-08-27T18:03:22.175Z,99.90
2018-08-27T18:05:50.749Z,99.90
2018-08-27T18:08:19.693Z,99.90
2018-08-27T18:10:48.477Z,99.90
2018-08-27T18:13:17.032Z,99.90
2018-08-27T18:15:45.875Z,99.90
2018-08-27T18:18:16.518Z,99.90
2018-08-27T18:20:45.407Z,99.90
2018-08-27T18:23:14.378Z,99.90
2018-08-27T18:25:42.882Z,99.90
2018-08-27T18:28:12.075Z,99.90
2018-08-27T18:30:40.963Z,99.90
2018-08-27T18:33:09.489Z,99.90
2018-08-27T18:35:38.148Z,99.90
2018-08-27T18:38:06.897Z,99.90
2018-08-27T18:40:35.446Z,99.90
2018-08-27T18:43:04.394Z,99.90
2018-08-27T18:45:33.049Z,99.90
2018-08-27T18:48:01.964Z,99.90
2018-08-27T18:50:30.466Z,99.90
2018-08-27T18:52:59.053Z,99.90
2018-08-27T18:55:27.713Z,99.90
2018-08-27T18:57:56.602Z,99.90
2018-08-27T19:00:27.838Z,99.90
2018-08-27T19:02:56.777Z,99.90
2018-08-27T19:05:25.820Z,99.90
2018-08-27T19:07:54.942Z,99.90
2018-08-27T19:10:23.949Z,99.90
2018-08-27T19:12:53.036Z,99.90
2018-08-27T19:15:21.966Z,99.90
2018-08-27T19:17:51.062Z,99.90
2018-08-27T19:20:20.190Z,99.90
2018-08-27T19:22:49.199Z,99.90
2018-08-27T19:25:18.271Z,99.90
2018-08-27T19:27:47.159Z,99.90
2018-08-27T19:30:16.152Z,99.90
2018-08-27T19:32:45.155Z,99.90
2018-08-27T19:35:14.042Z,99.90
2018-08-27T19:37:42.920Z,99.90
2018-08-27T19:40:12.014Z,99.90
2018-08-27T19:42:40.904Z,99.90
2018-08-27T19:45:09.795Z,99.90
2018-08-27T19:47:38.507Z,99.90
2018-08-27T19:50:08.565Z,99.90
2018-08-27T19:52:37.076Z,99.90
2018-08-27T19:55:05.691Z,99.90
2018-08-27T19:57:34.360Z,99.90
2018-08-27T20:00:02.841Z,99.90
2018-08-27T20:02:31.484Z,99.90
2018-08-27T20:05:00.051Z,99.90
2018-08-27T20:07:28.580Z,99.90
2018-08-27T20:09:57.098Z,99.90
2018-08-27T20:12:25.544Z,99.90
2018-08-27T20:14:54.090Z,99.90
2018-08-27T20:17:22.631Z,99.90
2018-08-27T20:19:52.892Z,99.90
2018-08-27T20:22:21.389Z,99.90
2018-08-27T20:24:50.025Z,99.90
2018-08-27T20:27:18.549Z,99.90
2018-08-27T20:29:47.170Z,99.90
2018-08-27T20:32:15.770Z,99.90
2018-08-27T20:34:44.311Z,99.90
2018-08-27T20:37:14.204Z,99.90
2018-08-27T20:39:42.790Z,99.90
2018-08-27T20:42:11.246Z,99.90
2018-08-27T20:44:39.698Z,99.90
2018-08-27T20:47:08.212Z,99.90
2018-08-27T20:49:36.750Z,99.90
2018-08-27T20:52:05.440Z,99.90
2018-08-27T20:54:34.156Z,99.90
2018-08-27T20:57:02.602Z,99.90
2018-08-27T20:59:31.204Z,99.90
2018-08-27T21:01:59.945Z,99.90
2018-08-27T21:04:28.508Z,99.90
2018-08-27T21:06:57.002Z,99.90
2018-08-27T21:09:25.693Z,99.90
2018-08-27T21:11:54.169Z,99.90
2018-08-27T21:15:09.444Z,99.90
2018-08-27T21:17:38.571Z,99.90
2018-08-27T21:20:09.276Z,99.90
2018-08-27T21:22:37.762Z,99.90
2018-08-27T21:25:07.178Z,99.90
2018-08-27T21:27:36.341Z,99.90
2018-08-27T21:30:06.180Z,99.90
2018-08-27T21:32:37.301Z,99.90
2018-08-27T21:35:06.010Z,99.90
2018-08-27T21:37:34.828Z,99.90
2018-08-27T21:40:03.310Z,99.90
2018-08-27T21:42:31.835Z,99.90
2018-08-27T21:45:00.288Z,99.90
2018-08-27T21:47:28.828Z,99.90
2018-08-27T21:49:57.781Z,99.90
2018-08-27T21:52:26.263Z,99.90
2018-08-27T21:54:54.711Z,99.90
2018-08-27T21:57:23.276Z,99.90
2018-08-27T21:59:51.895Z,99.90
2018-08-27T22:02:25.660Z,99.90
2018-08-27T22:04:54.126Z,99.90
2018-08-27T22:07:22.769Z,99.90
2018-08-27T22:09:51.199Z,99.90
2018-08-27T22:12:19.703Z,99.90
2018-08-27T22:14:48.232Z,99.90
2018-08-27T22:17:16.852Z,99.90
2018-08-27T22:19:45.382Z,99.90
2018-08-27T22:22:14.063Z,99.90
2018-08-27T22:24:42.523Z,99.90
2018-08-27T22:27:11.112Z,99.90
2018-08-27T22:29:39.619Z,99.90
2018-08-27T22:32:08.204Z,99.90
2018-08-27T22:34:36.657Z,99.90
2018-08-27T22:37:05.422Z,99.90
2018-08-27T22:39:33.864Z,99.90
2018-08-27T22:42:02.310Z,99.90
2018-08-27T22:44:31.094Z,99.90
2018-08-27T22:46:59.638Z,99.90
2018-08-27T22:49:28.149Z,99.90
2018-08-27T22:51:56.654Z,99.90
2018-08-27T22:54:25.096Z,99.90
2018-08-27T22:56:53.550Z,99.90
2018-08-27T22:59:21.969Z,99.90
2018-08-27T23:01:50.899Z,99.90
2018-08-27T23:04:24.604Z,99.90
2018-08-27T23:06:53.202Z,99.90
2018-08-27T23:09:21.632Z,99.90
2018-08-27T23:11:50.131Z,99.90
2018-08-27T23:14:18.568Z,99.90
2018-08-27T23:16:47.026Z,99.90
2018-08-27T23:19:15.606Z,99.90
2018-08-27T23:21:44.075Z,99.90
2018-08-27T23:24:12.604Z,99.90
2018-08-27T23:26:41.168Z,99.90
2018-08-27T23:29:09.955Z,99.90
2018-08-27T23:31:38.484Z,99.90
2018-08-27T23:34:06.928Z,99.90
2018-08-27T23:36:35.396Z,99.90
2018-08-27T23:39:04.539Z,99.90
2018-08-27T23:41:32.996Z,99.90
2018-08-27T23:44:01.635Z,99.90
2018-08-27T23:46:30.064Z,99.90
2018-08-27T23:48:58.694Z,99.90
2018-08-27T23:51:27.122Z,99.90
2018-08-27T23:53:55.567Z,99.90
2018-08-27T23:56:23.987Z,99.90
2018-08-27T23:58:52.763Z,99.90
